Current Weather

Provence

Provence, France (LFML)

Report from: Thursday, April 25, 2024 6:30 AM CEST
Current time: Thursday, April 25, 2024 6:40 AM CEST

Nearby weather – Weather history – Daily summaries
Weather forecast

Temperature8.0°C (46.4°F)
Wind chill3.9°C (39.0°F)
Dew point2.0°C (35.6°F)
Winds 17 kts (8.7 m/s, 19.6 mph) Northwest (320°)
Wind gusts 30 kts (15.4 m/s, 34.5 mph)
Clouds Sky clear
Altimeter29.80 in.Hg (1009 mB)
Relative humidity66 %
Density altitude-590 ft. (-180 m)
Remarks Fully automated report
Ceiling and visibility OK
Flight conditions Visual Meteorological Conditions
Raw dataLFML 250430Z AUTO 32017KT CAVOK 08/02 Q1009 BECMG 32020G30KT
An error has occurred. This application may no longer respond until reloaded. Reload 🗙